• Join FlightAware (Why Join?)
  • Login
  • US Flag 
09:17AM EST


 

Airport Tracker/Info


-or-


 

Live Flight TrackerFlight Track Log ✈ SKW5196 ✈ 03-May-2013 ✈ KATL - KIAH

Flight Track Log - Related Links

Times and Time Zones

All times are in EDT time to prevent confusion due to time zone crossing. See the SKW5196 flight status page for this flight to view local times or setup timezone preferences in your user account.

Time Position Orientation Groundspeed Altitude Reporting Facility
EDT Latitude Longitude Course Direction KTS MPH feet Rate Location/Type
01:50PM 33.6500 -84.3667 234° Southwest 169 194 3,400  Level Atlanta TRACON
01:51PM 33.6833 -84.3000 59° Northeast 204 235 6,000 2,220 Climbing Atlanta TRACON
01:52PM 33.8001 -84.3400 270° West  Level FlightAware Approximate
01:53PM 33.8001 -84.4698 270° West  Level FlightAware Approximate
01:54PM 33.7859 -84.5949 239° Southwest  Level FlightAware Approximate
01:54PM 33.8125 -84.3714 335° Northwest 282 325 11,300  Level Atlanta Center
01:55PM 33.7222 -84.6995 234° Southwest  Level FlightAware Approximate
01:55PM 33.8081 -84.4914 267° West 333 383 13,400  Level Atlanta Center
01:56PM 33.6580 -84.8037 234° Southwest  Level FlightAware Approximate
01:56PM 33.7908 -84.6161 261° West 343 395 15,800  Level Atlanta Center
01:57PM 33.7297 -84.7108 232° Southwest 338 389 18,200 1,920 Climbing Atlanta Center
01:58PM 33.6792 -84.7828 230° Southwest 346 398 19,700 1,680 Climbing Atlanta Center
01:59PM 33.6200 -84.9194 243° Southwest 361 415 21,600 1,800 Climbing Atlanta Center
02:00PM 33.5794 -85.0361 247° West 384 442 23,300 1,500 Climbing Atlanta Center
02:01PM 33.5367 -85.1578 247° West 397 457 24,600 1,440 Climbing Atlanta Center
02:02PM 33.5019 -85.2819 251° West 397 457 26,200 1,380 Climbing Atlanta Center
02:03PM 33.4842 -85.4011 260° West 397 457 27,400 1,080 Climbing Atlanta Center
02:04PM 33.4636 -85.5353 260° West 404 465 28,400 1,020 Climbing Atlanta Center
02:06PM 33.4183 -85.8183 259° West 419 482 30,600 1,020 Climbing Atlanta Center
02:07PM 33.3953 -85.9522 258° West 419 482 31,500 840 Climbing Atlanta Center
02:08PM 33.3742 -86.0961 260° West 419 482 32,300 780 Climbing Atlanta Center
02:09PM 33.3511 -86.2272 258° West 424 488 33,100 780 Climbing Atlanta Center
02:10PM 33.3297 -86.3708 260° West 431 496 33,900 720 Climbing Atlanta Center
02:11PM 33.3064 -86.4944 257° West 431 496 34,600 900 Climbing Atlanta Center
02:12PM 33.2844 -86.6481 260° West 431 496 35,800 1,140 Climbing Atlanta Center
02:13PM 33.2608 -86.7814 258° West 425 489 36,900 840 Climbing Atlanta Center
02:14PM 33.2389 -86.9122 259° West 415 478 37,500 540 Climbing Atlanta Center
02:15PM 33.1922 -87.0375 246° West 409 471 38,000 240 Climbing Atlanta Center
02:16PM 33.1519 -87.1428 245° Southwest 402 463 38,000  Level Atlanta Center
02:17PM 33.1089 -87.2703 248° West 402 463 38,000  Level Atlanta Center
02:18PM 33.0681 -87.3950 249° West 407 468 38,000  Level Atlanta Center
02:19PM 33.0003 -87.6028 249° West 402 463 38,000  Level Memphis Center
02:20PM 32.9592 -87.7256 248° West 402 463 38,000  Level Memphis Center
02:21PM 32.9181 -87.8503 249° West 402 463 38,000  Level Memphis Center
02:22PM 32.8786 -87.9778 250° West 402 463 38,000  Level Memphis Center
02:23PM 32.8414 -88.0997 250° West 402 463 38,000  Level Memphis Center
02:24PM 32.8017 -88.2144 248° West 407 468 38,000  Level Memphis Center
02:25PM 32.7578 -88.3392 247° West 407 468 38,000  Level Memphis Center
02:26PM 32.7181 -88.4608 249° West 407 468 38,000  Level Memphis Center
02:27PM 32.6758 -88.5853 248° West 407 468 38,000  Level Memphis Center
02:28PM 32.6339 -88.7069 248° West 407 468 38,000  Level Memphis Center
02:29PM 32.5914 -88.8286 248° West 407 468 38,000  Level Memphis Center
02:30PM 32.5492 -88.9475 247° West 397 457 38,000  Level Memphis Center
02:31PM 32.5067 -89.0689 247° West 397 457 38,000  Level Memphis Center
02:32PM 32.4658 -89.1878 248° West 397 457 38,000  Level Memphis Center
02:33PM 32.4253 -89.3064 248° West 397 457 38,000  Level Memphis Center
02:34PM 32.3844 -89.4225 247° West 397 457 38,000  Level Memphis Center
02:35PM 32.3414 -89.5433 247° West 397 457 38,000  Level Memphis Center
02:36PM 32.2983 -89.6594 246° West 397 457 38,000  Level Memphis Center
02:37PM 32.2572 -89.7775 248° West 397 457 38,000  Level Memphis Center
02:38PM 32.2181 -89.8956 249° West 397 457 38,000  Level Memphis Center
02:39PM 32.1767 -90.0111 247° West 397 457 38,000  Level Memphis Center
02:40PM 32.1353 -90.1267 247° West 397 457 38,000  Level Memphis Center
02:42PM 32.0725 -90.3011 247° West 382 440 38,000  Level Houston Center
02:43PM 32.0331 -90.4133 248° West 376 433 38,000  Level Houston Center
02:44PM 31.9914 -90.5261 246° West 378 435 38,000  Level Houston Center
02:45PM 31.9425 -90.6636 247° West 384 442 38,000  Level Houston Center
02:46PM 31.9019 -90.7761 247° West 378 435 38,000  Level Houston Center
02:47PM 31.8581 -90.8950 247° West 377 434 38,000  Level Houston Center
02:48PM 31.8172 -91.0078 247° West 376 433 38,000  Level Houston Center
02:49PM 31.7756 -91.1200 246° West 376 433 38,000  Level Houston Center
02:50PM 31.7344 -91.2314 247° West 374 430 38,000  Level Houston Center
02:51PM 31.6942 -91.3433 247° West 371 427 38,000  Level Houston Center
02:52PM 31.6444 -91.4786 247° West 375 432 38,000  Level Houston Center
02:53PM 31.6019 -91.5897 246° West 376 433 38,000  Level Houston Center
02:54PM 31.5611 -91.7019 247° West 374 430 38,000  Level Houston Center
02:55PM 31.5178 -91.8150 246° West 379 436 38,000  Level Houston Center
02:56PM 31.4758 -91.9261 246° West 376 433 38,000  Level Houston Center
02:57PM 31.4339 -92.0381 246° West 376 433 38,000  Level Houston Center
02:58PM 31.3811 -92.1750 246° West 382 440 38,000  Level Houston Center
02:59PM 31.3386 -92.2861 246° West 379 436 38,000  Level Houston Center
03:00PM 31.2969 -92.3983 247° West 378 435 38,000  Level Houston Center
03:01PM 31.2539 -92.5100 246° West 378 435 38,000  Level Houston Center
03:02PM 31.1986 -92.6147 238° Southwest 379 436 38,000  Level Houston Center
03:03PM 31.1383 -92.7150 235° Southwest 379 436 38,000  Level Houston Center
03:04PM 31.0689 -92.8353 236° Southwest 375 432 38,000  Level Houston Center
03:05PM 31.0114 -92.9381 237° Southwest 378 435 38,000  Level Houston Center
03:06PM 30.9542 -93.0392 237° Southwest 377 434 38,000  Level Houston Center
03:07PM 30.8961 -93.1419 237° Southwest 380 437 38,000  Level Houston Center
03:08PM 30.8400 -93.2428 237° Southwest 376 433 38,000 -300 Level Houston Center
03:10PM 30.7706 -93.3642 236° Southwest 378 435 37,400 -1,140 Descending Houston Center
03:11PM 30.7142 -93.4656 237° Southwest 376 433 35,700 -1,920 Descending Houston Center
03:12PM 30.6575 -93.5653 237° Southwest 374 430 33,500 -2,220 Descending Houston Center
03:13PM 30.5986 -93.6672 236° Southwest 382 440 31,200 -2,640 Descending Houston Center
03:14PM 30.5381 -93.7722 236° Southwest 396 456 28,100 -3,300 Descending Houston Center
03:15PM 30.4661 -93.8989 237° Southwest 396 456 24,400 -3,300 Descending Houston Center
03:17PM 30.3481 -94.1036 236° Southwest 383 441 18,000 -2,940 Descending Houston Center
03:18PM 30.2900 -94.2028 236° Southwest 376 433 15,400 -2,220 Descending Houston Center
03:19PM 30.2375 -94.2939 236° Southwest 343 395 13,400 -1,920 Descending Houston Center
03:20PM 30.1989 -94.3692 239° Southwest 305 351 12,100 -1,500 Descending Houston Center
03:20PM 30.1919 -94.3986 255° West 307 353 11,900 -840 Descending Houston Center
03:21PM 30.1647 -94.4706 246° West 287 330 11,200 -960 Descending Houston Center
03:22PM 30.1361 -94.5442 246° West 275 316 10,300 -1,080 Descending Houston Center
03:22PM 30.1292 -94.5669 251° West 276 318 9,900 -1,020 Descending Houston Center
03:23PM 30.1042 -94.6258 244° Southwest 275 316 9,300 -1,020 Descending Houston Center
03:23PM 30.0975 -94.6475 250° West 275 316 8,900 -900 Descending Houston Center
03:24PM 30.0706 -94.7144 245° Southwest 276 318 8,300 -780 Descending Houston Center
03:24PM 30.0664 -94.7289 252° West 278 320 8,100 -780 Descending Houston Center
03:25PM 30.0419 -94.7883 245° Southwest 274 315 7,600 -780 Descending Houston Center
03:25PM 30.0347 -94.8083 247° West 274 315 7,300 -540 Descending Houston Center
03:26PM 30.0133 -94.8619 245° Southwest 271 312 7,100 -720 Descending Houston Center
03:26PM 30.0056 -94.9050 258° West 269 310 6,600 -660 Descending Houston Center
03:27PM 29.9994 -94.9578 262° West 267 307 6,400 -720 Descending Houston Center
03:27PM 29.9950 -94.9878 260° West 265 305 5,900 -1,260 Descending Houston Center
03:28PM 29.9900 -95.0386 264° West 230 265 5,100 -1,260 Descending Houston Center
03:28PM 29.9914 -95.0628 274° West 240 276 4,600 -1,200 Descending Houston Center
03:29PM 29.9928 -95.1131 272° West 218 251 3,900 -1,200 Descending Houston Center
03:29PM 29.9942 -95.1319 275° West 219 252 3,400 -1,200 Descending Houston Center
03:30PM 29.9925 -95.1758 268° West 185 213 2,700 -1,200 Descending Houston Center